Time;durP1;ratioP1;P1;durP2;ratioP2;P2;SDS_P1;SDS_P2;PMS_P1;PMS_P2;Temp;Humidity;BMP_temperature;BMP_pressure;BME280_temperature;BME280_humidity;BME280_pressure;Samples;Min_cycle;Max_cycle;Signal;HPM_P1;HPM_P2
2024/01/23 00:01:07;;;;;;;6.47;0.55;;;;;;;7.96;75.33;100644.25;10261894;28;20054;-80
2024/01/23 00:06:09;;;;;;;4.88;0.43;;;;;;;7.90;75.83;100631.47;10259821;28;20106;-81
2024/01/23 00:11:10;;;;;;;5.03;0.65;;;;;;;7.82;75.49;100644.75;10265317;28;20145;-81
2024/01/23 00:16:12;;;;;;;6.47;0.60;;;;;;;7.81;75.33;100664.50;10246309;28;20057;-80
2024/01/23 00:21:14;;;;;;;6.50;0.40;;;;;;;7.82;75.49;100663.47;10257792;28;20066;-81
2024/01/23 00:26:15;;;;;;;4.47;0.30;;;;;;;7.86;75.38;100656.84;10242123;28;20082;-82
2024/01/23 00:31:17;;;;;;;3.72;0.30;;;;;;;7.88;75.13;100654.88;10259368;28;20101;-81
2024/01/23 00:36:19;;;;;;;4.50;1.05;;;;;;;7.78;75.76;100678.16;10258286;28;20073;-82
2024/01/23 00:41:22;;;;;;;5.53;1.27;;;;;;;7.70;75.84;100673.53;10257395;28;20074;-82
2024/01/23 00:46:23;;;;;;;4.03;0.20;;;;;;;7.67;76.00;100673.84;10257015;28;20216;-82
2024/01/23 00:51:25;;;;;;;5.10;0.30;;;;;;;7.72;75.47;100677.78;10251422;28;20431;-81
2024/01/23 00:56:27;;;;;;;3.30;0.50;;;;;;;7.81;75.29;100669.84;10255976;28;20055;-81
2024/01/23 01:01:29;;;;;;;4.65;0.50;;;;;;;7.84;75.42;100674.88;10258290;28;20105;-80
2024/01/23 01:06:31;;;;;;;4.40;0.60;;;;;;;7.91;75.20;100682.16;10256980;28;20479;-80
2024/01/23 01:11:33;;;;;;;6.85;0.60;;;;;;;7.85;75.25;100692.63;10259127;28;20051;-81
2024/01/23 01:16:34;;;;;;;6.18;0.50;;;;;;;7.87;74.77;100704.88;10253506;28;20051;-80
2024/01/23 01:21:37;;;;;;;5.55;1.27;;;;;;;7.86;74.95;100719.25;10255768;28;20495;-80
2024/01/23 01:26:39;;;;;;;4.65;1.58;;;;;;;7.87;74.93;100709.38;10261024;28;20466;-80
2024/01/23 01:31:40;;;;;;;7.28;0.43;;;;;;;7.85;75.13;100703.34;10258022;28;20550;-80
2024/01/23 01:36:42;;;;;;;9.70;0.93;;;;;;;7.79;75.11;100694.06;10263635;28;20565;-80
2024/01/23 01:41:50;;;;;;;5.65;0.85;;;;;;;7.73;75.01;100706.19;10258712;28;20843;-81
2024/01/23 01:46:52;;;;;;;22.73;2.40;;;;;;;7.80;74.68;100702.94;10259901;28;20494;-80
2024/01/23 01:51:56;;;;;;;6.90;1.35;;;;;;;7.84;74.53;100713.22;10257985;28;20045;-80
2024/01/23 01:57:00;;;;;;;7.53;1.00;;;;;;;7.93;74.31;100711.44;10254157;28;20461;-80
2024/01/23 02:02:07;;;;;;;9.02;0.98;;;;;;;7.90;74.22;100720.63;10254680;28;20098;-80
2024/01/23 02:07:08;;;;;;;9.10;0.70;;;;;;;7.88;74.20;100719.09;10257908;28;20053;-80
2024/01/23 02:12:11;;;;;;;8.02;0.70;;;;;;;7.84;74.12;100723.03;10253727;28;20523;-81
2024/01/23 02:17:12;;;;;;;15.77;0.95;;;;;;;7.79;74.19;100720.81;10262890;28;20065;-80
2024/01/23 02:22:14;;;;;;;3.65;0.20;;;;;;;7.74;73.71;100709.72;10261148;28;20051;-81
2024/01/23 02:27:16;;;;;;;9.88;0.70;;;;;;;7.72;73.49;100728.63;10265523;28;20074;-81
2024/01/23 02:32:18;;;;;;;7.05;0.80;;;;;;;7.71;73.75;100736.78;10261127;28;20055;-81
2024/01/23 02:37:19;;;;;;;6.85;0.65;;;;;;;7.64;73.64;100749.06;10267532;28;20477;-81
2024/01/23 02:42:21;;;;;;;7.95;0.50;;;;;;;7.64;73.69;100727.66;10264063;28;20051;-81
2024/01/23 02:47:23;;;;;;;11.52;1.80;;;;;;;7.61;73.46;100720.78;10260062;28;20058;-80
2024/01/23 02:52:27;;;;;;;6.20;0.70;;;;;;;7.67;73.11;100764.84;10264204;28;20129;-80
2024/01/23 02:57:29;;;;;;;5.43;0.60;;;;;;;7.79;72.69;100762.81;10262689;28;20054;-81
2024/01/23 03:02:31;;;;;;;4.10;0.25;;;;;;;7.83;72.58;100773.06;10270256;28;20090;-80
2024/01/23 03:07:34;;;;;;;5.10;0.43;;;;;;;7.80;72.28;100797.47;10267201;28;20379;-81
2024/01/23 03:12:35;;;;;;;10.00;0.68;;;;;;;7.85;72.21;100808.56;10266057;28;20075;-80
2024/01/23 03:17:37;;;;;;;5.65;0.85;;;;;;;7.83;71.48;100837.28;10261250;28;20061;-80
2024/01/23 03:22:39;;;;;;;6.18;0.47;;;;;;;7.89;71.75;100850.09;10264213;28;20047;-79
2024/01/23 03:27:42;;;;;;;7.90;0.60;;;;;;;7.90;71.48;100851.78;10267520;28;20136;-78
2024/01/23 03:32:44;;;;;;;5.57;1.05;;;;;;;7.87;71.30;100840.53;10264680;28;20051;-79
2024/01/23 03:37:45;;;;;;;4.00;0.55;;;;;;;7.87;71.08;100846.72;10269560;28;20576;-78
2024/01/23 03:42:48;;;;;;;8.75;0.38;;;;;;;7.83;71.26;100855.19;10266291;28;20043;-78
2024/01/23 03:47:50;;;;;;;3.38;0.75;;;;;;;7.80;71.51;100879.56;10263690;28;20051;-78
2024/01/23 03:52:52;;;;;;;9.48;0.50;;;;;;;7.88;71.37;100880.53;10267407;28;20508;-79
2024/01/23 03:57:53;;;;;;;8.18;0.30;;;;;;;7.88;70.94;100883.22;10263421;28;20066;-78
2024/01/23 04:02:56;;;;;;;6.60;0.47;;;;;;;7.79;71.28;100889.44;10265401;28;20065;-78
2024/01/23 04:07:58;;;;;;;5.63;0.40;;;;;;;7.70;71.36;100909.88;10261962;28;20182;-79
2024/01/23 04:13:00;;;;;;;4.97;0.70;;;;;;;7.67;71.02;100912.00;10264450;28;20130;-80
2024/01/23 04:18:04;;;;;;;6.70;0.28;;;;;;;7.68;71.26;100937.75;10265116;28;20098;-79
2024/01/23 04:23:06;;;;;;;7.32;1.23;;;;;;;7.66;71.18;100953.97;10270486;28;20410;-79
2024/01/23 04:28:07;;;;;;;4.50;0.47;;;;;;;7.53;71.44;100958.75;10261618;28;20058;-79
2024/01/23 04:33:09;;;;;;;5.32;0.60;;;;;;;7.63;70.32;100964.09;10270280;28;20115;-81
2024/01/23 04:38:11;;;;;;;3.55;0.20;;;;;;;7.63;70.13;100986.34;10259057;28;20058;-82
2024/01/23 04:43:12;;;;;;;6.68;0.55;;;;;;;7.64;70.71;100996.06;10262584;28;20051;-82
2024/01/23 04:48:14;;;;;;;5.40;0.60;;;;;;;7.64;69.75;100993.41;10259889;28;20047;-81
2024/01/23 04:53:16;;;;;;;8.30;0.70;;;;;;;7.58;70.45;101001.97;10266320;28;20552;-82
2024/01/23 04:58:18;;;;;;;4.88;1.25;;;;;;;7.65;70.05;101010.28;10258581;28;20051;-81
2024/01/23 05:03:20;;;;;;;6.03;0.43;;;;;;;7.62;70.19;101021.25;10260601;28;20141;-81
2024/01/23 05:08:24;;;;;;;4.22;0.47;;;;;;;7.60;70.02;101025.91;10270430;28;20046;-81
2024/01/23 05:13:28;;;;;;;2.25;0.40;;;;;;;7.50;69.87;101023.22;10259854;28;20055;-81
2024/01/23 05:18:30;;;;;;;3.55;0.20;;;;;;;7.31;70.10;101045.44;10296493;28;20047;-83
2024/01/23 05:23:31;;;;;;;1.80;0.28;;;;;;;7.20;70.01;101061.59;10286528;28;20050;-84
2024/01/23 05:28:33;;;;;;;10.00;1.00;;;;;;;7.03;70.58;101069.31;10277029;28;20044;-84
2024/01/23 05:33:36;;;;;;;2.58;0.20;;;;;;;6.91;70.81;101078.38;10275844;28;20070;-84
2024/01/23 05:38:37;;;;;;;5.13;0.35;;;;;;;6.75;70.55;101082.41;10274372;28;20147;-84
2024/01/23 05:43:39;;;;;;;6.55;1.52;;;;;;;6.60;71.15;101089.06;10276812;28;20405;-83
2024/01/23 05:48:41;;;;;;;2.65;0.30;;;;;;;6.60;71.48;101094.41;10256749;28;20284;-82
2024/01/23 05:53:43;;;;;;;6.57;0.63;;;;;;;6.63;72.06;101098.63;10272709;28;20058;-81
2024/01/23 05:58:44;;;;;;;6.00;0.50;;;;;;;6.71;71.83;101110.38;10289855;28;20501;-82
2024/01/23 06:03:46;;;;;;;4.15;0.35;;;;;;;6.75;71.99;101121.59;10290676;28;20047;-81
2024/01/23 06:08:48;;;;;;;11.75;0.68;;;;;;;6.74;72.46;101131.47;10286753;28;20085;-81
2024/01/23 06:13:49;;;;;;;6.20;0.65;;;;;;;6.78;72.11;101145.41;10288920;28;20050;-81
2024/01/23 06:18:51;;;;;;;6.70;0.57;;;;;;;6.83;72.43;101150.34;10291600;28;20051;-80
2024/01/23 06:23:52;;;;;;;5.35;0.50;;;;;;;6.90;72.82;101175.56;10290463;28;20070;-81
2024/01/23 06:28:56;;;;;;;6.07;0.60;;;;;;;6.88;72.16;101178.38;10306379;28;20046;-81
2024/01/23 06:33:57;;;;;;;1.83;0.70;;;;;;;6.90;72.42;101189.78;10305917;28;20051;-81
2024/01/23 06:38:59;;;;;;;8.57;0.40;;;;;;;6.94;72.28;101198.38;10295332;28;20145;-81
2024/01/23 06:44:01;;;;;;;7.78;0.40;;;;;;;6.93;72.65;101220.72;10274200;28;20071;-82
2024/01/23 06:49:02;;;;;;;5.18;0.50;;;;;;;6.95;72.35;101238.34;10307520;28;20331;-84
2024/01/23 06:54:07;;;;;;;6.63;0.50;;;;;;;6.97;72.92;101237.38;10307748;28;20069;-82
2024/01/23 06:59:10;;;;;;;14.27;0.52;;;;;;;7.02;72.33;101253.88;10329253;28;20077;-81
2024/01/23 07:04:11;;;;;;;8.25;1.00;;;;;;;7.08;71.90;101264.03;10305212;23;20046;-59
2024/01/23 07:09:13;;;;;;;10.82;0.90;;;;;;;7.10;72.56;101270.94;10311171;28;20051;-59
2024/01/23 07:14:14;;;;;;;11.23;1.33;;;;;;;7.22;72.08;101287.75;10286009;28;20097;-70
2024/01/23 07:19:16;;;;;;;5.45;0.40;;;;;;;7.26;71.33;101299.88;10286034;28;20046;-71
2024/01/23 07:24:22;;;;;;;7.65;1.25;;;;;;;7.30;71.58;101319.19;10293211;28;20061;-71
2024/01/23 07:29:23;;;;;;;8.77;2.40;;;;;;;7.30;71.49;101317.38;10283211;28;20058;-73
2024/01/23 07:34:25;;;;;;;3.25;0.40;;;;;;;7.30;71.73;101336.09;10276035;28;20051;-74
2024/01/23 07:39:28;;;;;;;7.60;0.70;;;;;;;7.22;71.71;101343.06;10293899;28;20074;-72
2024/01/23 07:44:32;;;;;;;5.85;0.90;;;;;;;7.16;71.97;101360.47;10286385;28;20146;-74
2024/01/23 07:49:33;;;;;;;13.10;0.73;;;;;;;7.12;72.17;101369.75;10286832;28;20061;-73
2024/01/23 07:54:35;;;;;;;6.63;0.88;;;;;;;7.09;72.21;101372.66;10288549;28;20687;-73
2024/01/23 07:59:38;;;;;;;6.15;1.02;;;;;;;7.17;71.62;101362.19;10285554;28;20049;-72
2024/01/23 08:04:39;;;;;;;8.18;0.73;;;;;;;7.23;71.55;101355.47;10287739;28;20482;-74
2024/01/23 08:09:45;;;;;;;10.13;1.33;;;;;;;7.30;71.87;101383.38;10290148;28;20038;-74
2024/01/23 08:14:47;;;;;;;6.00;1.10;;;;;;;7.32;71.33;101374.25;10287116;28;20042;-74
2024/01/23 08:19:49;;;;;;;4.63;0.82;;;;;;;7.41;71.45;101380.66;10282444;28;20057;-76
2024/01/23 08:24:52;;;;;;;11.80;1.65;;;;;;;7.44;70.64;101391.09;10281953;28;20046;-74
2024/01/23 08:29:53;;;;;;;11.35;0.88;;;;;;;7.45;70.89;101395.47;10286234;28;20050;-74
2024/01/23 08:34:54;;;;;;;7.82;0.77;;;;;;;7.51;70.23;101400.31;10287298;28;20070;-74
2024/01/23 08:39:56;;;;;;;12.38;1.25;;;;;;;7.52;70.23;101406.50;10280116;28;20047;-71
2024/01/23 08:44:57;;;;;;;7.85;1.00;;;;;;;7.51;70.29;101429.72;10284320;28;20058;-71
2024/01/23 08:49:59;;;;;;;7.78;1.25;;;;;;;7.53;70.39;101432.28;10286559;28;20062;-71
2024/01/23 08:55:00;;;;;;;9.07;0.70;;;;;;;7.62;69.87;101444.91;10287670;28;20078;-71
2024/01/23 09:00:04;;;;;;;13.45;1.27;;;;;;;7.63;70.00;101456.44;10281482;28;20061;-71
2024/01/23 09:05:06;;;;;;;8.80;0.95;;;;;;;7.72;69.81;101464.53;10278021;28;20485;-71
2024/01/23 09:10:07;;;;;;;8.05;0.98;;;;;;;7.78;69.64;101476.56;10284791;28;20099;-71
2024/01/23 09:15:09;;;;;;;10.60;1.25;;;;;;;7.97;69.41;101480.34;10280764;28;20055;-70
2024/01/23 09:20:11;;;;;;;10.88;0.90;;;;;;;8.06;69.40;101485.75;10278620;28;20062;-71
2024/01/23 09:25:13;;;;;;;6.47;0.63;;;;;;;8.21;68.79;101490.75;10283194;28;20050;-71
2024/01/23 09:30:14;;;;;;;10.70;0.90;;;;;;;8.38;69.04;101489.31;10284816;28;20054;-71
2024/01/23 09:35:16;;;;;;;12.73;1.10;;;;;;;8.56;68.41;101494.94;10293590;28;20046;-71
2024/01/23 09:40:17;;;;;;;6.72;1.40;;;;;;;8.76;67.62;101502.06;10275280;28;20054;-70
2024/01/23 09:45:19;;;;;;;14.38;1.10;;;;;;;8.76;67.74;101504.72;10287169;28;20047;-72
2024/01/23 09:50:25;;;;;;;7.43;0.95;;;;;;;8.71;67.25;101510.50;10283253;28;20104;-71
2024/01/23 09:55:26;;;;;;;9.48;0.50;;;;;;;8.85;67.09;101514.66;10281728;28;20057;-71
2024/01/23 10:00:27;;;;;;;8.43;0.70;;;;;;;9.02;66.71;101525.69;10277843;28;20066;-71
2024/01/23 10:05:29;;;;;;;15.93;1.58;;;;;;;9.06;66.43;101516.41;10279300;28;20055;-71
2024/01/23 10:10:35;;;;;;;10.35;2.22;;;;;;;9.30;66.21;101519.56;10283197;28;20157;-70
2024/01/23 10:15:37;;;;;;;12.23;1.33;;;;;;;9.28;66.21;101528.72;10278392;28;20514;-70
2024/01/23 10:20:39;;;;;;;9.38;0.52;;;;;;;9.30;65.64;101519.56;10281767;28;20496;-70
2024/01/23 10:25:40;;;;;;;5.85;0.98;;;;;;;9.46;65.63;101510.13;10284923;28;20146;-70
2024/01/23 10:30:45;;;;;;;6.00;1.00;;;;;;;9.47;65.71;101511.81;10281490;28;20070;-69
2024/01/23 10:36:00;;;;;;;4.68;0.95;;;;;;;9.57;65.46;101512.66;10271777;28;20508;-69
2024/01/23 10:41:04;;;;;;;11.23;0.73;;;;;;;9.74;65.23;101524.53;10279455;28;20059;-69
2024/01/23 10:46:06;;;;;;;11.52;1.35;;;;;;;9.63;65.12;101530.03;10278322;28;20082;-69
2024/01/23 10:51:18;;;;;;;9.90;1.15;;;;;;;9.62;65.36;101541.78;10291785;28;20051;-69
2024/01/23 10:56:21;;;;;;;11.30;2.10;;;;;;;9.42;65.83;101532.84;10285196;28;20171;-71
2024/01/23 11:01:23;;;;;;;7.82;0.88;;;;;;;9.47;65.60;101525.22;10282154;28;20134;-70
2024/01/23 11:06:34;;;;;;;10.07;0.82;;;;;;;9.65;65.14;101530.75;10286968;28;20046;-70
2024/01/23 11:11:48;;;;;;;10.13;1.10;;;;;;;9.89;64.66;101531.19;10291768;28;20046;-70
2024/01/23 11:17:09;;;;;;;7.60;0.63;;;;;;;10.13;64.02;101529.88;10278319;28;20058;-70
2024/01/23 11:22:10;;;;;;;9.38;2.25;;;;;;;10.08;63.58;101538.38;10278085;28;20047;-70
2024/01/23 11:27:20;;;;;;;9.13;0.82;;;;;;;10.15;62.82;101529.72;10292261;28;20125;-70
2024/01/23 11:32:26;;;;;;;12.55;0.73;;;;;;;10.43;62.63;101536.91;10283700;28;20043;-70
2024/01/23 11:37:45;;;;;;;8.85;0.93;;;;;;;10.43;61.75;101542.28;10289391;28;20497;-69
2024/01/23 11:42:47;;;;;;;8.43;0.83;;;;;;;10.61;61.79;101552.31;10286788;28;20050;-70
2024/01/23 11:47:57;;;;;;;6.55;0.88;;;;;;;10.70;61.16;101549.56;10281664;28;20065;-69
2024/01/23 11:53:00;;;;;;;5.47;1.88;;;;;;;10.70;60.70;101540.63;10289122;28;20058;-71
2024/01/23 11:58:02;;;;;;;6.88;0.68;;;;;;;10.68;60.57;101548.00;10291279;28;20074;-70
2024/01/23 12:03:09;;;;;;;6.30;0.80;;;;;;;10.81;59.92;101543.16;10285764;28;20055;-70
2024/01/23 12:08:11;;;;;;;11.80;1.15;;;;;;;10.99;59.48;101523.53;10278608;28;20446;-69
2024/01/23 12:13:13;;;;;;;8.55;0.95;;;;;;;11.08;59.03;101522.66;10288476;28;20051;-68
2024/01/23 12:18:19;;;;;;;11.93;1.60;;;;;;;11.07;58.65;101529.00;10289682;28;20055;-69
2024/01/23 12:23:21;;;;;;;6.65;0.40;;;;;;;11.25;57.82;101513.72;10283555;28;20042;-69
2024/01/23 12:28:23;;;;;;;12.93;0.93;;;;;;;11.15;57.32;101499.50;10280575;28;20054;-69
2024/01/23 12:33:26;;;;;;;10.57;0.75;;;;;;;11.02;56.10;101512.47;10280713;28;20058;-69
2024/01/23 12:38:29;;;;;;;7.55;1.17;;;;;;;11.06;56.06;101511.19;10285395;28;20134;-69
2024/01/23 12:43:31;;;;;;;6.38;1.77;;;;;;;11.00;55.83;101501.00;10302937;28;20039;-69
2024/01/23 12:48:32;;;;;;;6.93;0.38;;;;;;;10.92;55.38;101504.47;10289876;28;20198;-69
2024/01/23 12:53:35;;;;;;;9.43;0.60;;;;;;;10.86;54.88;101481.69;10287792;28;20056;-69
2024/01/23 12:58:37;;;;;;;10.45;1.58;;;;;;;10.77;55.38;101496.03;10286529;28;20038;-70
2024/01/23 13:03:39;;;;;;;6.47;0.75;;;;;;;10.63;54.40;101488.47;10281812;28;20130;-69
2024/01/23 13:08:41;;;;;;;12.35;0.85;;;;;;;10.76;54.72;101482.72;10282329;28;20602;-70
2024/01/23 13:13:43;;;;;;;8.70;0.60;;;;;;;10.70;54.77;101494.91;10291989;28;20047;-69
2024/01/23 13:18:45;;;;;;;12.85;0.65;;;;;;;10.67;55.48;101484.47;10281038;28;20585;-70
2024/01/23 13:23:48;;;;;;;13.85;0.95;;;;;;;10.71;55.77;101475.13;10286286;28;20058;-68
2024/01/23 13:28:50;;;;;;;8.68;0.63;;;;;;;10.71;55.20;101475.13;10287448;28;20133;-68
2024/01/23 13:33:51;;;;;;;6.93;0.50;;;;;;;10.65;55.31;101467.66;10288006;28;20513;-68
2024/01/23 13:38:53;;;;;;;15.48;1.20;;;;;;;10.68;55.63;101475.41;10278767;28;20051;-68
2024/01/23 13:43:57;;;;;;;18.35;2.47;;;;;;;10.67;55.95;101484.47;10291138;28;20134;-68
2024/01/23 13:48:58;;;;;;;7.25;0.93;;;;;;;10.64;56.22;101491.00;10285872;28;20059;-69
2024/01/23 13:54:00;;;;;;;16.67;1.25;;;;;;;10.49;56.58;101496.00;10290440;28;20554;-68
2024/01/23 13:59:04;;;;;;;10.77;0.93;;;;;;;10.42;57.18;101505.63;10287667;28;20391;-68
2024/01/23 14:04:06;;;;;;;16.10;1.35;;;;;;;10.35;57.24;101501.00;10295676;28;20431;-68
2024/01/23 14:09:11;;;;;;;9.73;0.68;;;;;;;10.41;57.56;101487.00;10279779;28;20054;-69
2024/01/23 14:14:12;;;;;;;8.52;1.48;;;;;;;10.35;58.12;101468.75;10273987;28;20059;-68
2024/01/23 14:19:14;;;;;;;10.68;1.10;;;;;;;10.31;58.18;101463.69;10287964;28;20061;-69
2024/01/23 14:24:15;;;;;;;8.73;1.17;;;;;;;10.22;58.75;101464.50;10295912;28;20046;-69
2024/01/23 14:29:17;;;;;;;15.68;1.02;;;;;;;10.19;58.85;101464.81;10294119;28;20061;-68
2024/01/23 14:34:18;;;;;;;8.30;1.67;;;;;;;10.16;58.99;101467.78;10290366;28;20062;-71
2024/01/23 14:39:20;;;;;;;24.77;3.67;;;;;;;10.09;59.32;101469.34;10286917;28;20043;-72
2024/01/23 14:44:21;;;;;;;11.38;1.38;;;;;;;10.04;59.73;101488.59;10295031;28;20050;-72
2024/01/23 14:49:23;;;;;;;12.23;1.80;;;;;;;10.04;60.16;101493.13;10292896;28;20481;-71
2024/01/23 14:54:29;;;;;;;10.68;1.48;;;;;;;10.01;60.48;101504.16;10296627;28;20580;-71
2024/01/23 14:59:31;;;;;;;17.73;1.88;;;;;;;9.98;60.61;101504.47;10293677;28;20053;-72
2024/01/23 15:04:32;;;;;;;10.52;1.58;;;;;;;9.97;60.57;101498.22;10299833;28;20054;-72
2024/01/23 15:09:34;;;;;;;11.80;1.92;;;;;;;9.91;61.01;101488.91;10289160;28;20055;-72
2024/01/23 15:14:36;;;;;;;11.60;1.40;;;;;;;9.98;61.18;101482.97;10284610;28;20097;-71
2024/01/23 15:19:37;;;;;;;9.45;1.20;;;;;;;9.91;61.23;101466.56;10285514;28;20058;-70
2024/01/23 15:24:39;;;;;;;11.52;2.03;;;;;;;9.89;61.86;101468.53;10289110;28;20054;-72
2024/01/23 15:29:41;;;;;;;11.93;1.40;;;;;;;9.91;61.82;101477.31;10292488;28;20133;-63
2024/01/23 15:34:42;;;;;;;4.85;0.75;;;;;;;9.90;61.93;101476.47;10293450;28;20057;-72
2024/01/23 15:39:44;;;;;;;9.82;1.73;;;;;;;9.86;62.43;101455.44;10285083;28;20442;-73
2024/01/23 15:44:46;;;;;;;9.60;1.00;;;;;;;9.85;62.09;101449.22;10281219;28;20057;-70
2024/01/23 15:49:49;;;;;;;14.75;2.20;;;;;;;9.79;62.91;101462.34;10291356;28;20454;-68
2024/01/23 15:54:51;;;;;;;15.00;1.48;;;;;;;9.79;62.79;101443.56;10282806;28;20109;-68
2024/01/23 15:59:52;;;;;;;15.48;1.58;;;;;;;9.76;63.14;101441.16;10287810;28;20608;-69
2024/01/23 16:04:54;;;;;;;12.52;1.88;;;;;;;9.75;63.37;101431.41;10284303;28;20054;-67
2024/01/23 16:09:55;;;;;;;13.70;2.15;;;;;;;9.74;63.50;101446.69;10284758;28;20047;-69
2024/01/23 16:14:57;;;;;;;11.13;1.60;;;;;;;9.74;63.22;101444.00;10282959;28;20053;-69
2024/01/23 16:19:58;;;;;;;12.68;1.40;;;;;;;9.70;63.73;101438.06;10279372;28;20058;-59
2024/01/23 16:25:00;;;;;;;12.63;2.75;;;;;;;9.67;64.04;101432.97;10276115;28;20054;-60
2024/01/23 16:30:04;;;;;;;19.27;2.67;;;;;;;9.70;63.99;101426.47;10291638;28;20137;-59
2024/01/23 16:35:06;;;;;;;12.90;1.30;;;;;;;9.73;64.08;101423.50;10287087;28;20063;-59
2024/01/23 16:40:11;;;;;;;12.63;2.22;;;;;;;9.73;64.12;101416.31;10278827;28;20046;-60
2024/01/23 16:45:13;;;;;;;15.07;2.10;;;;;;;9.78;63.92;101425.75;10290063;28;20142;-59
2024/01/23 16:50:14;;;;;;;14.02;2.42;;;;;;;9.77;63.90;101414.16;10288244;28;20388;-59
2024/01/23 16:55:16;;;;;;;11.75;2.30;;;;;;;9.73;63.97;101416.31;10289196;28;20076;-59
2024/01/23 17:00:17;;;;;;;18.70;2.95;;;;;;;9.71;64.28;101420.94;10288692;28;20053;-59
2024/01/23 17:05:19;;;;;;;14.52;1.67;;;;;;;9.62;64.46;101427.19;10290386;28;20478;-60
2024/01/23 17:10:20;;;;;;;10.98;3.33;;;;;;;9.61;64.46;101432.69;10289029;28;20109;-59
2024/01/23 17:15:22;;;;;;;14.45;2.40;;;;;;;9.48;64.98;101424.94;10286314;28;20054;-59
2024/01/23 17:20:23;;;;;;;17.83;2.85;;;;;;;9.30;65.76;101420.28;10281931;28;20102;-60
2024/01/23 17:25:25;;;;;;;16.17;1.90;;;;;;;9.13;66.52;101418.31;10269512;28;20042;-59
2024/01/23 17:30:27;;;;;;;18.85;3.35;;;;;;;8.95;67.08;101398.53;10285222;28;20051;-59
2024/01/23 17:35:28;;;;;;;20.40;2.40;;;;;;;8.83;67.77;101387.94;10283339;28;20122;-59
2024/01/23 17:40:30;;;;;;;23.15;3.22;;;;;;;8.70;68.15;101390.00;10278343;28;20050;-59
2024/01/23 17:45:31;;;;;;;17.73;2.28;;;;;;;8.80;68.04;101371.28;10284311;28;20059;-60
2024/01/23 17:50:33;;;;;;;16.65;2.13;;;;;;;8.68;68.22;101354.47;10287154;28;20054;-60
2024/01/23 17:55:35;;;;;;;15.25;2.45;;;;;;;8.60;69.28;101359.66;10290863;28;20062;-60
2024/01/23 18:00:36;;;;;;;13.75;1.50;;;;;;;8.53;70.28;101357.53;10286204;28;20677;-60
2024/01/23 18:05:38;;;;;;;15.02;3.72;;;;;;;8.55;70.14;101362.78;10286390;28;20059;-60
2024/01/23 18:10:39;;;;;;;12.13;1.58;;;;;;;8.50;71.00;101363.16;10289357;28;20108;-60
2024/01/23 18:15:41;;;;;;;20.73;3.55;;;;;;;8.53;71.61;101344.16;10290326;28;20054;-61
2024/01/23 18:20:42;;;;;;;19.58;3.08;;;;;;;8.49;71.93;101323.97;10295090;28;20046;-60
2024/01/23 18:25:44;;;;;;;14.90;1.17;;;;;;;8.45;72.56;101317.19;10285071;28;20050;-60
2024/01/23 18:30:47;;;;;;;12.52;2.28;;;;;;;8.47;72.83;101301.84;10295703;28;20058;-61
2024/01/23 18:35:48;;;;;;;8.43;0.98;;;;;;;8.52;73.17;101298.72;10291561;28;20084;-60
2024/01/23 18:40:50;;;;;;;18.67;1.80;;;;;;;8.48;73.45;101279.41;10292987;28;20050;-60
2024/01/23 18:45:51;;;;;;;16.48;1.02;;;;;;;8.46;73.46;101267.13;10294721;28;20044;-60
2024/01/23 18:50:53;;;;;;;19.05;1.42;;;;;;;8.41;74.14;101231.84;10288746;28;20098;-60
2024/01/23 18:55:54;;;;;;;15.68;1.48;;;;;;;8.36;74.12;101263.56;10286316;28;20061;-60
2024/01/23 19:00:55;;;;;;;19.60;2.08;;;;;;;8.31;74.89;101258.59;10287148;28;20055;-60
2024/01/23 19:05:57;;;;;;;16.30;2.13;;;;;;;8.29;75.02;101241.81;10283234;28;20043;-61
2024/01/23 19:10:59;;;;;;;15.82;2.42;;;;;;;8.24;75.23;101228.03;10290702;28;20063;-61
2024/01/23 19:16:00;;;;;;;15.82;1.80;;;;;;;8.20;75.67;101205.19;10294658;28;20153;-62
2024/01/23 19:21:02;;;;;;;10.32;1.83;;;;;;;8.11;76.19;101180.91;10292635;28;20050;-63
2024/01/23 19:26:04;;;;;;;18.63;2.42;;;;;;;8.10;76.20;101211.38;10284233;28;20915;-64
2024/01/23 19:31:07;;;;;;;22.75;2.53;;;;;;;8.14;76.91;101195.88;10271139;28;20138;-63
2024/01/23 19:36:09;;;;;;;18.10;1.92;;;;;;;8.22;76.54;101181.78;10282715;28;20050;-65
2024/01/23 19:41:10;;;;;;;17.35;2.08;;;;;;;8.10;77.08;101170.38;10273065;28;20046;-67
2024/01/23 19:46:12;;;;;;;16.55;2.25;;;;;;;8.06;77.24;101167.09;10289024;28;20069;-67
2024/01/23 19:51:13;;;;;;;22.05;3.15;;;;;;;8.03;77.71;101159.34;10291833;28;20054;-66
2024/01/23 19:56:15;;;;;;;18.80;1.77;;;;;;;8.00;77.78;101143.56;10289050;28;20054;-67
2024/01/23 20:01:17;;;;;;;14.82;2.17;;;;;;;7.94;77.81;101136.09;10288353;28;20063;-66
2024/01/23 20:06:18;;;;;;;12.30;1.48;;;;;;;7.93;78.20;101145.09;10285777;28;20073;-66
2024/01/23 20:11:20;;;;;;;16.42;1.98;;;;;;;7.89;78.61;101136.50;10278936;28;20138;-65
2024/01/23 20:16:21;;;;;;;10.65;2.47;;;;;;;7.91;77.97;101115.78;10282224;28;20062;-66
2024/01/23 20:21:23;;;;;;;17.98;2.85;;;;;;;7.89;78.70;101128.47;10288083;28;20055;-65
2024/01/23 20:26:24;;;;;;;15.20;2.30;;;;;;;7.88;78.82;101118.75;10289098;28;20074;-66
2024/01/23 20:31:26;;;;;;;12.73;1.98;;;;;;;7.91;78.56;101110.44;10282723;28;20053;-65
2024/01/23 20:36:28;;;;;;;18.83;2.40;;;;;;;7.94;78.49;101086.06;10279808;28;20064;-65
2024/01/23 20:41:39;;;;;;;16.83;2.45;;;;;;;7.94;78.52;101064.66;10364871;28;20892;-65
2024/01/23 20:46:41;;;;;;;20.63;1.80;;;;;;;8.02;78.66;101085.38;10334751;28;20034;-65
2024/01/23 20:51:43;;;;;;;14.18;1.75;;;;;;;8.02;78.60;101073.84;10333873;28;20116;-65
2024/01/23 20:56:45;;;;;;;17.23;2.20;;;;;;;8.06;78.55;101075.22;10335147;28;20050;-65
2024/01/23 21:01:47;;;;;;;12.07;1.55;;;;;;;8.11;78.54;101064.94;10334967;28;20141;-65
2024/01/23 21:06:48;;;;;;;11.35;1.75;;;;;;;8.15;78.30;101058.28;10332009;28;20050;-66
2024/01/23 21:11:50;;;;;;;7.63;1.08;;;;;;;8.19;78.56;101048.97;10366452;28;20128;-65
2024/01/23 21:16:52;;;;;;;19.42;1.40;;;;;;;8.22;78.78;101053.22;10377073;28;20042;-65
2024/01/23 21:21:53;;;;;;;12.88;2.08;;;;;;;8.23;78.74;101068.28;10370331;28;20054;-64
2024/01/23 21:26:55;;;;;;;13.80;2.80;;;;;;;8.28;78.47;101036.59;10371123;28;20465;-63
2024/01/23 21:31:57;;;;;;;20.55;1.95;;;;;;;8.29;78.64;101032.91;10371113;28;20065;-62
2024/01/23 21:36:58;;;;;;;12.02;1.70;;;;;;;8.33;78.62;100978.91;10372682;28;20697;-62
2024/01/23 21:42:00;;;;;;;14.52;1.42;;;;;;;8.35;79.08;101002.84;10408794;23;20061;-62
2024/01/23 21:47:01;;;;;;;10.07;1.73;;;;;;;8.31;79.29;101002.31;10412892;28;20156;-63
2024/01/23 21:52:03;;;;;;;21.08;2.15;;;;;;;8.34;79.10;100977.06;10389222;28;20060;-63
2024/01/23 21:57:04;;;;;;;13.57;1.60;;;;;;;8.39;78.93;100974.78;10386982;28;20038;-63
2024/01/23 22:02:06;;;;;;;22.35;3.08;;;;;;;8.44;78.84;100980.59;10390758;28;20108;-62
2024/01/23 22:07:07;;;;;;;14.18;2.03;;;;;;;8.51;78.66;100968.31;10388605;28;20041;-62
2024/01/23 22:12:10;;;;;;;11.15;2.92;;;;;;;8.57;78.57;100961.50;10388944;28;20048;-63
2024/01/23 22:17:11;;;;;;;12.45;1.40;;;;;;;8.59;78.70;100956.84;10390304;28;20046;-62
2024/01/23 22:22:13;;;;;;;16.52;2.25;;;;;;;8.67;78.91;100943.53;10381759;28;20045;-61
2024/01/23 22:27:14;;;;;;;9.35;1.30;;;;;;;8.74;78.81;100933.91;10382505;28;20519;-61
2024/01/23 22:32:16;;;;;;;8.77;1.55;;;;;;;8.85;78.79;100932.88;10381811;28;20069;-62
2024/01/23 22:37:17;;;;;;;12.05;1.75;;;;;;;9.02;78.45;100933.03;10379304;28;20048;-62
2024/01/23 22:42:18;;;;;;;11.00;1.13;;;;;;;9.07;78.10;100933.44;10358740;28;20046;-61
2024/01/23 22:47:20;;;;;;;16.45;1.83;;;;;;;9.16;78.45;100926.31;10358844;28;20050;-62
2024/01/23 22:52:21;;;;;;;12.07;1.33;;;;;;;9.28;78.01;100917.03;10351521;28;20051;-61
2024/01/23 22:57:23;;;;;;;12.23;1.33;;;;;;;9.35;77.75;100910.06;10350415;28;20049;-61
2024/01/23 23:02:24;;;;;;;7.25;0.90;;;;;;;9.46;77.72;100909.00;10347482;28;21307;-61
2024/01/23 23:07:26;;;;;;;10.93;0.90;;;;;;;9.52;77.67;100913.75;10350634;28;20037;-61
2024/01/23 23:12:27;;;;;;;12.73;1.08;;;;;;;9.60;77.58;100916.47;10348828;28;20046;-61